Time;durP1;ratioP1;P1;durP2;ratioP2;P2;SDS_P1;SDS_P2;PMS_P1;PMS_P2;Temp;Humidity;BMP_temperature;BMP_pressure;BME280_temperature;BME280_humidity;BME280_pressure;Samples;Min_cycle;Max_cycle;Signal;HPM_P1;HPM_P2
2023/04/28 00:02:09;;;;;;;27.23;11.55;;;;;;;13.60;66.89;98894.97;5088676;28;20131;-50
2023/04/28 00:04:36;;;;;;;19.42;9.52;;;;;;;13.40;67.30;98875.22;5089338;28;20318;-51
2023/04/28 00:07:01;;;;;;;27.23;9.82;;;;;;;13.39;67.48;98880.56;5090037;28;20050;-46
2023/04/28 00:09:27;;;;;;;21.23;8.82;;;;;;;13.35;67.42;98871.22;5090550;28;20601;-44
2023/04/28 00:11:54;;;;;;;27.55;11.32;;;;;;;13.31;67.39;98878.38;5054285;28;20044;-46
2023/04/28 00:14:19;;;;;;;22.67;9.25;;;;;;;13.42;67.08;98898.66;5105397;28;20044;-47
2023/04/28 00:16:45;;;;;;;30.23;10.15;;;;;;;13.32;66.65;98876.63;5104910;28;20090;-45
2023/04/28 00:19:11;;;;;;;21.73;9.57;;;;;;;13.47;66.41;98899.22;5089547;28;20044;-47
2023/04/28 00:21:37;;;;;;;29.30;10.35;;;;;;;13.52;66.62;98897.19;5090003;28;20036;-49
2023/04/28 00:24:04;;;;;;;28.52;10.27;;;;;;;13.38;66.53;98873.66;5089512;28;20036;-46
2023/04/28 00:26:29;;;;;;;21.33;9.00;;;;;;;13.37;67.04;98882.41;5089594;28;20039;-47
2023/04/28 00:28:56;;;;;;;19.13;9.35;;;;;;;13.45;66.62;98901.91;5105618;28;20126;-47
2023/04/28 00:31:22;;;;;;;23.15;9.98;;;;;;;13.43;67.01;98895.13;5088541;28;20122;-46
2023/04/28 00:33:48;;;;;;;25.60;9.32;;;;;;;13.42;67.58;98901.25;5071222;28;20150;-44
2023/04/28 00:36:14;;;;;;;27.42;10.65;;;;;;;13.41;67.77;98889.13;5104669;28;20046;-46
2023/04/28 00:38:40;;;;;;;21.13;9.48;;;;;;;13.32;67.51;98880.06;5053532;28;20040;-51
2023/04/28 00:41:09;;;;;;;19.60;9.98;;;;;;;13.29;67.65;98875.03;5087559;28;20122;-47
2023/04/28 00:43:48;;;;;;;20.17;10.13;;;;;;;13.25;68.22;98860.47;5053219;28;20044;-45
2023/04/28 00:46:19;;;;;;;;;;;;;;;13.36;68.55;98885.94;5105655;28;20105;-47
2023/04/28 00:48:45;;;;;;;24.05;10.52;;;;;;;13.09;68.27;98855.25;5069941;28;20428;-45
2023/04/28 00:51:11;;;;;;;21.60;10.02;;;;;;;13.26;68.48;98887.41;5084707;28;20144;-48
2023/04/28 00:53:37;;;;;;;27.10;10.95;;;;;;;13.24;68.68;98890.09;5051318;28;20119;-49
2023/04/28 00:56:03;;;;;;;26.73;10.63;;;;;;;13.26;68.84;98890.88;5034662;28;20174;-49
2023/04/28 00:58:29;;;;;;;25.55;11.00;;;;;;;13.27;69.12;98886.50;5084079;28;20039;-50
2023/04/28 01:01:06;;;;;;;19.20;11.05;;;;;;;13.27;69.00;98876.91;5053871;28;20047;-46
2023/04/28 01:03:38;;;;;;;26.05;13.25;;;;;;;13.28;68.95;98873.38;5087959;28;20047;-51
2023/04/28 01:06:05;;;;;;;38.40;17.45;;;;;;;13.31;68.82;98877.53;5053590;28;20050;-45
2023/04/28 01:08:33;;;;;;;35.55;15.98;;;;;;;13.28;68.96;98880.34;5071038;28;20613;-50
2023/04/28 01:11:01;;;;;;;32.37;18.07;;;;;;;13.14;68.96;98855.88;5049787;28;20045;-50
2023/04/28 01:13:45;;;;;;;38.60;21.17;;;;;;;13.31;69.17;98888.84;5067327;28;20279;-49
2023/04/28 01:16:11;;;;;;;36.33;20.15;;;;;;;13.06;68.91;98844.19;5065700;28;20118;-49
2023/04/28 01:18:41;;;;;;;57.78;34.75;;;;;;;13.05;68.98;98840.72;5051779;28;20464;-46
2023/04/28 01:21:07;;;;;;;70.53;46.80;;;;;;;13.25;69.29;98880.50;5051660;28;20468;-45
2023/04/28 01:23:33;;;;;;;84.82;56.42;;;;;;;13.23;68.91;98883.22;5052260;28;20052;-47
2023/04/28 01:25:59;;;;;;;55.40;34.35;;;;;;;13.24;69.25;98877.06;5069285;28;20139;-50
2023/04/28 01:28:26;;;;;;;51.10;32.95;;;;;;;13.27;69.53;98889.09;5069162;28;20036;-45
2023/04/28 01:30:52;;;;;;;72.75;46.00;;;;;;;13.23;69.56;98879.78;5049891;28;20085;-45
2023/04/28 01:33:18;;;;;;;83.95;56.65;;;;;;;13.26;69.22;98885.66;5076067;28;20126;-45
2023/04/28 01:35:44;;;;;;;52.75;34.80;;;;;;;13.24;69.34;98884.88;5069198;28;20031;-47
2023/04/28 01:38:10;;;;;;;93.15;63.30;;;;;;;13.26;69.21;98885.66;5069667;28;20127;-44
2023/04/28 01:40:36;;;;;;;81.00;55.70;;;;;;;13.22;69.55;98889.38;5053224;28;20065;-46
2023/04/28 01:43:02;;;;;;;93.78;64.60;;;;;;;13.23;69.58;98891.06;5052501;28;20069;-52
2023/04/28 01:45:29;;;;;;;78.45;52.03;;;;;;;13.25;69.66;98889.19;5070312;28;20524;-47
2023/04/28 01:47:55;;;;;;;41.67;28.33;;;;;;;13.25;69.71;98883.13;5087033;28;20105;-49
2023/04/28 01:50:21;;;;;;;40.92;26.50;;;;;;;13.28;69.63;98902.06;5045680;28;20157;-47
2023/04/28 01:52:47;;;;;;;42.88;24.92;;;;;;;13.16;69.85;98876.66;5050177;28;20072;-45
2023/04/28 01:55:13;;;;;;;31.50;19.70;;;;;;;13.31;69.94;98898.44;5053969;28;20036;-47
2023/04/28 01:57:39;;;;;;;27.75;15.48;;;;;;;13.32;69.68;98892.28;5069491;28;20070;-47
2023/04/28 02:00:06;;;;;;;17.25;10.95;;;;;;;13.18;69.69;98863.53;5075970;28;20040;-47
2023/04/28 02:02:35;;;;;;;17.55;10.15;;;;;;;13.20;69.16;98872.09;5056544;28;20040;-46
2023/04/28 02:05:01;;;;;;;24.98;11.15;;;;;;;13.36;69.03;98891.16;5059409;28;20040;-45
2023/04/28 02:07:30;;;;;;;20.30;10.77;;;;;;;13.38;68.74;98887.56;5077342;28;20032;-45
2023/04/28 02:09:56;;;;;;;18.30;9.68;;;;;;;13.39;68.48;98876.19;5060100;28;20032;-47
2023/04/28 02:12:22;;;;;;;20.73;10.52;;;;;;;13.40;68.04;98882.22;5060385;28;20055;-50
2023/04/28 02:14:50;;;;;;;12.48;8.82;;;;;;;13.39;68.14;98878.81;5043355;28;20368;-48
2023/04/28 02:17:17;;;;;;;17.77;9.98;;;;;;;13.40;67.67;98883.06;5094944;28;20040;-48
2023/04/28 02:19:43;;;;;;;19.45;9.98;;;;;;;13.35;68.00;98866.00;5076483;28;20065;-49
2023/04/28 02:22:09;;;;;;;22.15;11.07;;;;;;;13.47;67.85;98886.16;5093615;28;20043;-47
2023/04/28 02:24:36;;;;;;;20.48;10.02;;;;;;;13.53;67.51;98886.66;5094928;28;20040;-47
2023/04/28 02:27:04;;;;;;;26.27;10.38;;;;;;;13.57;67.52;98884.69;5078953;28;20287;-47
2023/04/28 02:29:30;;;;;;;20.58;9.18;;;;;;;13.56;67.33;98881.22;5096820;28;20051;-46
2023/04/28 02:31:57;;;;;;;15.00;8.18;;;;;;;13.60;66.90;98887.13;5096694;28;20038;-51
2023/04/28 02:34:24;;;;;;;16.73;9.05;;;;;;;13.49;66.78;98850.38;5094578;28;20042;-52
2023/04/28 02:36:49;;;;;;;18.73;9.45;;;;;;;13.66;66.27;98871.06;5074464;28;20044;-48
2023/04/28 02:39:15;;;;;;;19.63;9.32;;;;;;;13.59;66.42;98848.88;5043027;28;20052;-46
2023/04/28 02:41:42;;;;;;;17.23;8.80;;;;;;;13.75;66.20;98875.78;5042031;28;20032;-52
2023/04/28 02:44:08;;;;;;;19.92;8.90;;;;;;;13.75;66.30;98881.00;5064032;28;20064;-52
2023/04/28 02:46:33;;;;;;;15.75;9.43;;;;;;;13.74;65.92;98884.53;5073209;28;20083;-48
2023/04/28 02:49:00;;;;;;;17.25;8.95;;;;;;;13.61;66.01;98862.69;5095606;28;20035;-47
2023/04/28 02:51:26;;;;;;;12.13;7.68;;;;;;;13.79;65.60;98889.47;5070250;28;20046;-50
2023/04/28 02:53:52;;;;;;;20.77;8.07;;;;;;;13.65;65.50;98874.66;5093085;28;20727;-45
2023/04/28 02:56:18;;;;;;;21.02;8.80;;;;;;;13.63;65.29;98862.59;5059883;28;20044;-51
2023/04/28 02:58:44;;;;;;;12.68;7.53;;;;;;;13.86;65.39;98903.88;5092406;28;20408;-47
2023/04/28 03:01:10;;;;;;;18.85;8.93;;;;;;;13.85;65.46;98892.56;5074688;28;20063;-45
2023/04/28 03:03:36;;;;;;;17.10;8.63;;;;;;;13.87;65.27;98898.53;5075574;28;20178;-46
2023/04/28 03:06:02;;;;;;;17.25;8.70;;;;;;;13.88;65.28;98907.22;5075713;28;20521;-49
2023/04/28 03:08:28;;;;;;;17.23;7.78;;;;;;;13.89;65.30;98909.75;5093642;28;20044;-48
2023/04/28 03:10:55;;;;;;;13.65;7.47;;;;;;;13.92;65.24;98914.78;5056772;28;20089;-50
2023/04/28 03:13:21;;;;;;;12.35;7.50;;;;;;;13.93;64.98;98916.44;5106421;28;20898;-46
2023/04/28 03:15:48;;;;;;;11.93;7.43;;;;;;;13.92;65.20;98899.09;5087692;28;20098;-50
2023/04/28 03:18:15;;;;;;;14.05;8.48;;;;;;;14.03;65.08;98906.28;5083382;28;20061;-48
2023/04/28 03:20:41;;;;;;;12.10;7.82;;;;;;;14.06;65.01;98903.50;5070979;28;20249;-49
2023/04/28 03:23:08;;;;;;;13.77;7.47;;;;;;;14.10;64.67;98909.38;5087615;28;20046;-46
2023/04/28 03:25:34;;;;;;;12.75;8.55;;;;;;;14.09;64.87;98911.13;5105946;28;20043;-49
2023/04/28 03:28:01;;;;;;;12.70;7.55;;;;;;;14.10;64.95;98917.22;5106131;28;20040;-47
2023/04/28 03:30:27;;;;;;;11.85;7.93;;;;;;;14.09;64.92;98907.69;5072894;28;20036;-47
2023/04/28 03:32:53;;;;;;;15.25;9.57;;;;;;;14.12;64.79;98907.50;5072538;28;20067;-46
2023/04/28 03:35:20;;;;;;;18.48;8.50;;;;;;;14.17;64.61;98903.69;5071487;28;20032;-45
2023/04/28 03:37:46;;;;;;;12.45;7.47;;;;;;;14.23;64.68;98910.31;5055358;28;20820;-48
2023/04/28 03:40:12;;;;;;;14.77;8.15;;;;;;;14.29;64.44;98920.38;5072669;28;20048;-47
2023/04/28 03:42:58;;;;;;;13.82;8.38;;;;;;;14.23;64.48;98924.22;5088210;28;20079;-46
2023/04/28 03:45:32;;;;;;;11.38;7.40;;;;;;;14.23;64.68;98926.00;5106013;28;20060;-49
2023/04/28 03:47:58;;;;;;;17.20;7.97;;;;;;;14.22;64.86;98926.94;5103235;28;20086;-48
2023/04/28 03:50:24;;;;;;;15.20;8.18;;;;;;;14.23;64.64;98921.63;5072352;28;20050;-49
2023/04/28 03:52:51;;;;;;;10.90;7.43;;;;;;;14.29;64.69;98930.81;5083095;28;20044;-46
2023/04/28 03:55:17;;;;;;;13.75;7.72;;;;;;;14.20;64.43;98903.47;5078224;28;20060;-49
2023/04/28 03:57:43;;;;;;;13.13;8.10;;;;;;;14.43;64.32;98936.09;5105187;28;20070;-45
2023/04/28 04:00:09;;;;;;;20.05;9.02;;;;;;;14.51;64.17;98933.84;5072086;28;20105;-47
2023/04/28 04:02:41;;;;;;;22.02;9.52;;;;;;;14.50;63.78;98916.47;5104668;28;20164;-47
2023/04/28 04:05:07;;;;;;;16.33;8.10;;;;;;;14.75;63.41;98934.94;5055336;28;20036;-49
2023/04/28 04:07:33;;;;;;;14.07;7.60;;;;;;;14.79;63.18;98938.19;5105241;28;20162;-46
2023/04/28 04:09:59;;;;;;;12.48;8.98;;;;;;;14.87;63.05;98938.53;5088479;28;20168;-46
2023/04/28 04:12:25;;;;;;;15.15;8.57;;;;;;;14.97;62.80;98939.63;5105508;28;20085;-48
2023/04/28 04:14:51;;;;;;;17.52;7.97;;;;;;;14.97;62.59;98933.56;5088973;28;20495;-47
2023/04/28 04:17:18;;;;;;;13.38;8.85;;;;;;;15.04;62.44;98932.22;5098234;28;20040;-47
2023/04/28 04:19:44;;;;;;;17.30;8.27;;;;;;;15.07;62.17;98932.03;5051609;28;20086;-46
2023/04/28 04:22:11;;;;;;;12.43;8.23;;;;;;;15.09;62.04;98927.53;5088656;28;20043;-46
2023/04/28 04:24:37;;;;;;;14.63;8.35;;;;;;;15.12;61.82;98928.19;5088096;28;20064;-46
2023/04/28 04:27:03;;;;;;;12.00;8.02;;;;;;;15.15;61.78;98938.44;5070831;28;20036;-46
2023/04/28 04:29:36;;;;;;;11.20;8.32;;;;;;;15.23;61.49;98937.94;5071395;28;20040;-48
2023/04/28 04:32:08;;;;;;;12.00;7.45;;;;;;;15.27;61.47;98942.91;5071625;28;20047;-47
2023/04/28 04:34:34;;;;;;;13.50;8.05;;;;;;;15.08;61.16;98916.22;5087489;28;20123;-45
2023/04/28 04:37:01;;;;;;;11.57;7.70;;;;;;;15.35;61.01;98945.00;5054390;28;20093;-47
2023/04/28 04:39:27;;;;;;;11.73;7.57;;;;;;;15.45;60.93;98948.69;5103696;28;20047;-47
2023/04/28 04:41:53;;;;;;;15.23;7.47;;;;;;;15.54;60.83;98952.53;5065118;28;20048;-50
2023/04/28 04:44:42;;;;;;;14.63;7.80;;;;;;;15.57;60.36;98945.31;5080867;28;20056;-46
2023/04/28 04:47:17;;;;;;;13.85;8.10;;;;;;;15.39;60.47;98922.91;5071244;28;20067;-48
2023/04/28 04:49:45;;;;;;;10.67;7.77;;;;;;;15.28;60.39;98913.13;5034241;28;20037;-48
2023/04/28 04:52:11;;;;;;;16.45;7.80;;;;;;;15.45;60.35;98927.72;5050615;28;20075;-51
2023/04/28 04:54:37;;;;;;;12.50;7.10;;;;;;;15.44;60.51;98933.91;5085792;28;20036;-46
2023/04/28 04:57:04;;;;;;;13.30;7.00;;;;;;;15.58;60.53;98965.31;5104365;28;20097;-49
2023/04/28 04:59:49;;;;;;;7.63;5.95;;;;;;;15.55;60.72;98964.66;5081820;28;20067;-52
2023/04/28 05:02:17;;;;;;;9.88;6.78;;;;;;;15.49;61.29;98965.06;5084205;28;20040;-48
2023/04/28 05:04:43;;;;;;;12.48;7.93;;;;;;;15.43;61.79;98966.31;5072792;28;20042;-48
2023/04/28 05:07:10;;;;;;;8.95;7.07;;;;;;;15.58;61.50;98967.94;5104511;28;20040;-48
2023/04/28 05:09:39;;;;;;;12.75;6.60;;;;;;;15.46;61.77;98923.34;5053734;28;20048;-47
2023/04/28 05:12:05;;;;;;;17.70;6.65;;;;;;;15.84;61.62;98954.88;5066966;28;20040;-50
2023/04/28 05:14:32;;;;;;;11.77;5.82;;;;;;;15.94;61.06;98958.56;5094642;27;20174;-46
2023/04/28 05:16:58;;;;;;;12.63;6.18;;;;;;;15.95;61.05;98947.13;5100594;28;20114;-54
2023/04/28 05:19:28;;;;;;;11.30;6.25;;;;;;;16.14;60.95;98972.94;5085680;28;20043;-50
2023/04/28 05:21:54;;;;;;;11.25;6.75;;;;;;;16.17;60.57;98962.25;5104025;28;20043;-44
2023/04/28 05:24:24;;;;;;;13.30;6.78;;;;;;;16.35;60.13;98988.03;5086129;28;20391;-44
2023/04/28 05:26:51;;;;;;;13.75;6.85;;;;;;;16.04;60.31;98965.69;5053171;28;20069;-51
2023/04/28 05:29:20;;;;;;;9.43;6.60;;;;;;;15.90;60.72;98972.81;5067861;28;20561;-48
2023/04/28 05:31:46;;;;;;;16.10;6.82;;;;;;;15.98;60.99;98994.94;5050133;28;20056;-44
2023/04/28 05:34:13;;;;;;;10.73;6.05;;;;;;;15.93;60.93;99004.91;5058002;28;20424;-48
2023/04/28 05:36:40;;;;;;;9.25;6.45;;;;;;;15.82;61.32;99010.03;5100574;28;20055;-50
2023/04/28 05:39:09;;;;;;;9.15;6.90;;;;;;;15.61;61.84;98999.19;5087064;28;20051;-50
2023/04/28 05:41:37;;;;;;;10.43;6.90;;;;;;;15.61;62.47;99007.03;5068971;28;20496;-50
2023/04/28 05:44:05;;;;;;;10.55;6.18;;;;;;;15.57;62.86;99010.81;5083291;28;20274;-47
2023/04/28 05:46:31;;;;;;;10.50;7.18;;;;;;;15.64;63.49;99001.63;5038607;28;20045;-47
2023/04/28 05:48:59;;;;;;;11.13;7.05;;;;;;;15.72;64.14;98992.38;5044834;28;20512;-48
2023/04/28 05:51:28;;;;;;;14.90;7.53;;;;;;;15.63;64.88;98992.06;5066515;28;20047;-46
2023/04/28 05:53:54;;;;;;;10.38;7.10;;;;;;;15.56;65.30;98996.03;5073173;28;20055;-48
2023/04/28 05:56:20;;;;;;;13.35;6.93;;;;;;;15.42;65.66;98998.69;5104087;28;20116;-53
2023/04/28 05:58:49;;;;;;;10.10;6.35;;;;;;;15.42;65.49;98995.22;5069095;28;20048;-49
2023/04/28 06:01:16;;;;;;;8.70;5.90;;;;;;;15.37;65.77;98992.91;5084369;28;20403;-48
2023/04/28 06:03:43;;;;;;;10.73;6.15;;;;;;;15.44;65.42;98996.78;5071505;28;20082;-49
2023/04/28 06:06:10;;;;;;;12.07;6.00;;;;;;;15.49;65.53;99005.19;5053386;28;20043;-47
2023/04/28 06:08:37;;;;;;;11.43;6.65;;;;;;;15.48;65.05;99003.53;5049882;28;20036;-48
2023/04/28 06:11:05;;;;;;;9.48;6.22;;;;;;;15.52;65.28;99002.41;5060982;28;20070;-50
2023/04/28 06:13:31;;;;;;;16.35;6.53;;;;;;;15.46;65.17;98992.28;5062568;28;20242;-50
2023/04/28 06:15:58;;;;;;;15.13;7.15;;;;;;;15.32;65.73;98976.63;5096649;28;20068;-47
2023/04/28 06:18:24;;;;;;;14.15;7.57;;;;;;;15.61;65.64;99001.78;5079071;28;20123;-45
2023/04/28 06:20:50;;;;;;;10.80;7.07;;;;;;;15.60;65.49;98983.53;5077262;28;20048;-45
2023/04/28 06:23:16;;;;;;;8.75;6.85;;;;;;;15.62;65.36;98974.66;5077471;28;20090;-45
2023/04/28 06:25:45;;;;;;;12.20;6.93;;;;;;;15.79;65.10;98997.13;5058270;28;20465;-48
2023/04/28 06:28:12;;;;;;;10.55;7.20;;;;;;;15.93;65.12;99006.69;5069863;28;20598;-45
2023/04/28 06:30:38;;;;;;;11.65;7.22;;;;;;;15.93;64.81;98978.69;5066938;28;20048;-47
2023/04/28 06:33:04;;;;;;;11.68;7.50;;;;;;;16.28;64.63;98993.81;5053919;28;20537;-51
2023/04/28 06:35:30;;;;;;;8.60;6.88;;;;;;;16.39;64.29;98996.53;5086974;28;20181;-54
2023/04/28 06:37:56;;;;;;;7.32;4.75;;;;;;;16.80;63.10;99004.19;5087586;28;20542;-54
2023/04/28 06:40:22;;;;;;;10.50;5.63;;;;;;;17.05;62.46;99001.50;5090972;28;20485;-55
2023/04/28 06:42:55;;;;;;;7.40;4.78;;;;;;;17.23;61.54;98999.31;5079633;28;20181;-51
2023/04/28 06:45:29;;;;;;;7.07;4.93;;;;;;;17.15;61.27;98985.91;5081216;28;20074;-52
2023/04/28 06:47:56;;;;;;;6.47;4.82;;;;;;;17.20;61.38;98997.75;5074353;28;20051;-54
2023/04/28 06:50:23;;;;;;;6.63;4.88;;;;;;;17.19;60.87;98982.09;5078536;28;20494;-56
2023/04/28 06:52:49;;;;;;;9.13;4.30;;;;;;;17.18;60.69;98985.69;5062569;28;20131;-50
2023/04/28 06:55:16;;;;;;;8.52;4.55;;;;;;;17.18;60.94;98983.91;5076391;28;20565;-54
2023/04/28 06:57:43;;;;;;;7.13;4.10;;;;;;;17.04;61.46;98988.47;5063277;28;20492;-57
2023/04/28 07:00:10;;;;;;;6.07;4.63;;;;;;;16.86;61.26;98953.84;5061863;28;20503;-54
2023/04/28 07:02:36;;;;;;;5.95;3.80;;;;;;;16.94;60.96;98972.53;5084962;28;20044;-52
2023/04/28 07:05:03;;;;;;;5.95;4.30;;;;;;;16.98;61.18;99000.25;5089696;28;20396;-57
2023/04/28 07:07:31;;;;;;;8.35;4.45;;;;;;;17.22;60.65;98985.34;5088114;28;20230;-51
2023/04/28 07:09:58;;;;;;;6.38;4.38;;;;;;;17.61;59.57;98988.66;5069497;28;20036;-52
2023/04/28 07:12:24;;;;;;;10.50;4.50;;;;;;;18.01;59.27;98989.13;5065104;28;20040;-58
2023/04/28 07:14:50;;;;;;;7.57;4.22;;;;;;;19.01;57.34;98987.41;5089509;28;20455;-55
2023/04/28 07:17:16;;;;;;;8.68;4.10;;;;;;;19.22;56.02;98984.84;5062979;28;20033;-59
2023/04/28 07:19:42;;;;;;;7.10;4.15;;;;;;;19.25;55.49;98981.13;5065013;28;20037;-50
2023/04/28 07:22:08;;;;;;;8.52;4.60;;;;;;;19.03;55.14;98982.03;5107697;27;20048;-52
2023/04/28 07:24:35;;;;;;;6.93;4.65;;;;;;;18.74;55.83;98980.84;5075173;28;20036;-54
2023/04/28 07:27:02;;;;;;;6.28;4.32;;;;;;;18.31;56.34;98967.56;5075790;28;20040;-53
2023/04/28 07:29:32;;;;;;;10.77;4.30;;;;;;;17.87;56.87;98953.38;5072326;28;20045;-56
2023/04/28 07:32:00;;;;;;;7.45;4.45;;;;;;;17.90;57.14;98987.31;5076846;28;20040;-56
2023/04/28 07:34:27;;;;;;;10.40;4.97;;;;;;;17.95;57.71;98989.63;5068265;28;20043;-51
2023/04/28 07:36:53;;;;;;;7.22;4.50;;;;;;;17.91;57.98;98993.41;5069397;28;20090;-50
2023/04/28 07:39:19;;;;;;;12.40;5.35;;;;;;;17.82;58.48;99002.00;5068623;28;20046;-47
2023/04/28 07:41:45;;;;;;;6.22;5.10;;;;;;;17.52;59.12;98978.81;5067236;28;20040;-51
2023/04/28 07:44:11;;;;;;;7.10;5.05;;;;;;;17.28;59.54;98989.31;5052077;28;20064;-52
2023/04/28 07:46:37;;;;;;;9.30;5.97;;;;;;;17.17;60.50;98981.38;5087471;28;20039;-53
2023/04/28 07:49:07;;;;;;;9.68;6.30;;;;;;;17.35;60.42;99001.06;5088937;28;20055;-52
2023/04/28 07:51:33;;;;;;;8.10;5.20;;;;;;;17.38;60.41;99001.66;5070483;28;20570;-52
2023/04/28 07:53:59;;;;;;;8.55;5.45;;;;;;;17.11;60.77;98980.06;5070953;28;20081;-51
2023/04/28 07:56:26;;;;;;;9.13;6.10;;;;;;;17.20;61.17;99007.44;5090925;28;20062;-43
2023/04/28 07:58:52;;;;;;;11.57;7.60;;;;;;;17.28;61.07;99000.66;5105696;28;20492;-43
